sensor_id;sensor_type;location;lat;lon;timestamp;P1;durP1;ratioP1;P2;durP2;ratioP2
51286;SDS011;37364;46.974;18.916;2023-02-28T00:00:39;12.80;;;9.65;;
51286;SDS011;37364;46.974;18.916;2023-02-28T00:03:10;15.65;;;9.60;;
51286;SDS011;37364;46.974;18.916;2023-02-28T00:05:41;21.67;;;9.57;;
51286;SDS011;37364;46.974;18.916;2023-02-28T00:08:14;16.42;;;8.82;;
51286;SDS011;37364;46.974;18.916;2023-02-28T00:10:44;21.15;;;9.98;;
51286;SDS011;37364;46.974;18.916;2023-02-28T00:13:14;18.42;;;9.88;;
51286;SDS011;37364;46.974;18.916;2023-02-28T00:15:44;13.48;;;9.43;;
51286;SDS011;37364;46.974;18.916;2023-02-28T00:18:15;14.70;;;9.65;;
51286;SDS011;37364;46.974;18.916;2023-02-28T00:20:45;13.43;;;8.27;;
51286;SDS011;37364;46.974;18.916;2023-02-28T00:23:18;16.27;;;9.25;;
51286;SDS011;37364;46.974;18.916;2023-02-28T00:25:48;16.50;;;9.57;;
51286;SDS011;37364;46.974;18.916;2023-02-28T00:28:19;15.57;;;9.27;;
51286;SDS011;37364;46.974;18.916;2023-02-28T00:30:50;22.35;;;9.70;;
51286;SDS011;37364;46.974;18.916;2023-02-28T00:33:20;17.02;;;9.57;;
51286;SDS011;37364;46.974;18.916;2023-02-28T00:35:51;21.02;;;10.10;;
51286;SDS011;37364;46.974;18.916;2023-02-28T00:38:23;19.45;;;9.38;;
51286;SDS011;37364;46.974;18.916;2023-02-28T00:40:53;15.73;;;9.52;;
51286;SDS011;37364;46.974;18.916;2023-02-28T00:43:24;15.35;;;9.43;;
51286;SDS011;37364;46.974;18.916;2023-02-28T00:45:54;14.65;;;8.88;;
51286;SDS011;37364;46.974;18.916;2023-02-28T00:48:24;19.95;;;9.35;;
51286;SDS011;37364;46.974;18.916;2023-02-28T00:50:54;17.73;;;9.73;;
51286;SDS011;37364;46.974;18.916;2023-02-28T00:53:27;14.82;;;8.77;;
51286;SDS011;37364;46.974;18.916;2023-02-28T00:55:59;16.08;;;9.05;;
51286;SDS011;37364;46.974;18.916;2023-02-28T00:58:30;16.27;;;9.18;;
51286;SDS011;37364;46.974;18.916;2023-02-28T01:01:00;14.75;;;9.00;;
51286;SDS011;37364;46.974;18.916;2023-02-28T01:03:31;14.48;;;8.95;;
51286;SDS011;37364;46.974;18.916;2023-02-28T01:06:01;19.67;;;9.40;;
51286;SDS011;37364;46.974;18.916;2023-02-28T01:08:34;16.95;;;8.57;;
51286;SDS011;37364;46.974;18.916;2023-02-28T01:11:08;13.73;;;9.13;;
51286;SDS011;37364;46.974;18.916;2023-02-28T01:13:39;16.70;;;9.13;;
51286;SDS011;37364;46.974;18.916;2023-02-28T01:16:11;13.23;;;8.45;;
51286;SDS011;37364;46.974;18.916;2023-02-28T01:18:42;13.10;;;9.13;;
51286;SDS011;37364;46.974;18.916;2023-02-28T01:21:13;15.82;;;8.38;;
51286;SDS011;37364;46.974;18.916;2023-02-28T01:23:47;14.65;;;8.70;;
51286;SDS011;37364;46.974;18.916;2023-02-28T01:26:19;15.63;;;8.75;;
51286;SDS011;37364;46.974;18.916;2023-02-28T01:28:51;17.55;;;9.27;;
51286;SDS011;37364;46.974;18.916;2023-02-28T01:31:22;14.70;;;8.85;;
51286;SDS011;37364;46.974;18.916;2023-02-28T01:33:54;13.48;;;8.32;;
51286;SDS011;37364;46.974;18.916;2023-02-28T01:36:27;13.60;;;8.38;;
51286;SDS011;37364;46.974;18.916;2023-02-28T01:39:00;15.85;;;9.15;;
51286;SDS011;37364;46.974;18.916;2023-02-28T01:41:32;13.65;;;8.60;;
51286;SDS011;37364;46.974;18.916;2023-02-28T01:44:07;12.45;;;8.85;;
51286;SDS011;37364;46.974;18.916;2023-02-28T01:47:14;16.85;;;8.82;;
51286;SDS011;37364;46.974;18.916;2023-02-28T01:49:44;11.80;;;8.10;;
51286;SDS011;37364;46.974;18.916;2023-02-28T01:52:15;17.05;;;9.05;;
51286;SDS011;37364;46.974;18.916;2023-02-28T01:54:49;15.18;;;8.90;;
51286;SDS011;37364;46.974;18.916;2023-02-28T01:57:21;17.15;;;9.80;;
51286;SDS011;37364;46.974;18.916;2023-02-28T02:00:05;15.57;;;8.77;;
51286;SDS011;37364;46.974;18.916;2023-02-28T02:02:41;15.35;;;8.90;;
51286;SDS011;37364;46.974;18.916;2023-02-28T02:07:50;19.90;;;8.77;;
51286;SDS011;37364;46.974;18.916;2023-02-28T02:10:31;17.00;;;8.95;;
51286;SDS011;37364;46.974;18.916;2023-02-28T02:13:11;15.45;;;8.77;;
51286;SDS011;37364;46.974;18.916;2023-02-28T02:15:55;11.93;;;8.30;;
51286;SDS011;37364;46.974;18.916;2023-02-28T02:18:36;14.43;;;8.13;;
51286;SDS011;37364;46.974;18.916;2023-02-28T02:21:36;21.65;;;9.10;;
51286;SDS011;37364;46.974;18.916;2023-02-28T02:25:04;13.50;;;7.85;;
51286;SDS011;37364;46.974;18.916;2023-02-28T02:28:21;14.48;;;8.02;;
51286;SDS011;37364;46.974;18.916;2023-02-28T02:37:20;16.88;;;8.68;;
51286;SDS011;37364;46.974;18.916;2023-02-28T02:40:00;14.80;;;8.27;;
51286;SDS011;37364;46.974;18.916;2023-02-28T02:42:41;16.08;;;8.30;;
51286;SDS011;37364;46.974;18.916;2023-02-28T02:45:18;17.02;;;8.30;;
51286;SDS011;37364;46.974;18.916;2023-02-28T02:47:56;12.27;;;9.00;;
51286;SDS011;37364;46.974;18.916;2023-02-28T02:50:33;13.73;;;8.88;;
51286;SDS011;37364;46.974;18.916;2023-02-28T02:53:10;15.32;;;8.50;;
51286;SDS011;37364;46.974;18.916;2023-02-28T02:55:43;16.02;;;8.70;;
51286;SDS011;37364;46.974;18.916;2023-02-28T02:58:21;14.20;;;8.32;;
51286;SDS011;37364;46.974;18.916;2023-02-28T03:00:55;13.68;;;8.57;;
51286;SDS011;37364;46.974;18.916;2023-02-28T03:03:30;16.02;;;9.65;;
51286;SDS011;37364;46.974;18.916;2023-02-28T03:06:02;11.70;;;8.18;;
51286;SDS011;37364;46.974;18.916;2023-02-28T03:08:38;15.30;;;8.90;;
51286;SDS011;37364;46.974;18.916;2023-02-28T03:11:12;20.10;;;9.82;;
51286;SDS011;37364;46.974;18.916;2023-02-28T03:16:51;16.63;;;9.15;;
51286;SDS011;37364;46.974;18.916;2023-02-28T03:19:42;14.20;;;8.45;;
51286;SDS011;37364;46.974;18.916;2023-02-28T03:22:21;13.43;;;8.77;;
51286;SDS011;37364;46.974;18.916;2023-02-28T03:25:08;14.48;;;8.27;;
51286;SDS011;37364;46.974;18.916;2023-02-28T03:27:46;13.07;;;8.30;;
51286;SDS011;37364;46.974;18.916;2023-02-28T03:30:26;14.10;;;8.98;;
51286;SDS011;37364;46.974;18.916;2023-02-28T03:33:03;11.65;;;8.05;;
51286;SDS011;37364;46.974;18.916;2023-02-28T03:35:39;18.10;;;9.50;;
51286;SDS011;37364;46.974;18.916;2023-02-28T03:38:14;17.55;;;8.80;;
51286;SDS011;37364;46.974;18.916;2023-02-28T03:40:51;12.82;;;8.70;;
51286;SDS011;37364;46.974;18.916;2023-02-28T03:43:27;16.08;;;9.23;;
51286;SDS011;37364;46.974;18.916;2023-02-28T03:46:02;18.77;;;8.55;;
51286;SDS011;37364;46.974;18.916;2023-02-28T03:48:43;16.58;;;8.15;;
51286;SDS011;37364;46.974;18.916;2023-02-28T03:51:18;13.50;;;8.63;;
51286;SDS011;37364;46.974;18.916;2023-02-28T03:56:26;17.10;;;10.63;;
51286;SDS011;37364;46.974;18.916;2023-02-28T03:59:01;15.52;;;8.48;;
51286;SDS011;37364;46.974;18.916;2023-02-28T04:01:37;13.13;;;8.90;;
51286;SDS011;37364;46.974;18.916;2023-02-28T04:04:09;14.75;;;9.38;;
51286;SDS011;37364;46.974;18.916;2023-02-28T04:06:42;14.23;;;8.88;;
51286;SDS011;37364;46.974;18.916;2023-02-28T04:09:13;18.67;;;10.88;;
51286;SDS011;37364;46.974;18.916;2023-02-28T04:11:48;19.00;;;8.38;;
51286;SDS011;37364;46.974;18.916;2023-02-28T04:14:22;17.33;;;8.82;;
51286;SDS011;37364;46.974;18.916;2023-02-28T04:16:53;17.85;;;8.98;;
51286;SDS011;37364;46.974;18.916;2023-02-28T04:19:23;17.17;;;9.13;;
51286;SDS011;37364;46.974;18.916;2023-02-28T04:21:53;17.27;;;9.52;;
51286;SDS011;37364;46.974;18.916;2023-02-28T04:24:24;11.98;;;8.52;;
51286;SDS011;37364;46.974;18.916;2023-02-28T04:26:58;14.70;;;9.20;;
51286;SDS011;37364;46.974;18.916;2023-02-28T04:29:28;15.27;;;9.77;;
51286;SDS011;37364;46.974;18.916;2023-02-28T04:32:00;14.68;;;9.13;;
51286;SDS011;37364;46.974;18.916;2023-02-28T04:34:31;16.85;;;9.43;;
51286;SDS011;37364;46.974;18.916;2023-02-28T04:37:02;16.20;;;8.77;;
51286;SDS011;37364;46.974;18.916;2023-02-28T04:39:39;19.10;;;8.70;;
51286;SDS011;37364;46.974;18.916;2023-02-28T04:42:12;19.38;;;8.93;;
51286;SDS011;37364;46.974;18.916;2023-02-28T04:44:43;17.33;;;9.80;;
51286;SDS011;37364;46.974;18.916;2023-02-28T04:47:13;17.00;;;10.02;;
51286;SDS011;37364;46.974;18.916;2023-02-28T04:49:43;16.40;;;10.45;;
51286;SDS011;37364;46.974;18.916;2023-02-28T04:52:14;16.40;;;9.15;;
51286;SDS011;37364;46.974;18.916;2023-02-28T04:54:44;21.02;;;9.73;;
51286;SDS011;37364;46.974;18.916;2023-02-28T04:57:16;16.38;;;9.52;;
51286;SDS011;37364;46.974;18.916;2023-02-28T04:59:46;25.23;;;9.23;;
51286;SDS011;37364;46.974;18.916;2023-02-28T05:02:16;17.02;;;9.15;;
51286;SDS011;37364;46.974;18.916;2023-02-28T05:04:47;14.00;;;9.32;;
51286;SDS011;37364;46.974;18.916;2023-02-28T05:07:17;21.17;;;10.73;;
51286;SDS011;37364;46.974;18.916;2023-02-28T05:09:48;19.30;;;12.23;;
51286;SDS011;37364;46.974;18.916;2023-02-28T05:12:20;25.05;;;11.85;;
51286;SDS011;37364;46.974;18.916;2023-02-28T05:14:50;28.15;;;14.35;;
51286;SDS011;37364;46.974;18.916;2023-02-28T05:17:20;23.15;;;13.10;;
51286;SDS011;37364;46.974;18.916;2023-02-28T05:19:51;24.52;;;14.02;;
51286;SDS011;37364;46.974;18.916;2023-02-28T05:22:39;20.90;;;12.25;;
51286;SDS011;37364;46.974;18.916;2023-02-28T05:25:10;20.00;;;11.20;;
51286;SDS011;37364;46.974;18.916;2023-02-28T05:27:45;16.10;;;10.10;;
51286;SDS011;37364;46.974;18.916;2023-02-28T05:30:16;17.17;;;11.38;;
51286;SDS011;37364;46.974;18.916;2023-02-28T05:32:49;16.50;;;9.77;;
51286;SDS011;37364;46.974;18.916;2023-02-28T05:35:20;16.48;;;9.88;;
51286;SDS011;37364;46.974;18.916;2023-02-28T05:37:51;20.00;;;11.07;;
51286;SDS011;37364;46.974;18.916;2023-02-28T05:40:21;20.52;;;10.15;;
51286;SDS011;37364;46.974;18.916;2023-02-28T05:42:54;25.13;;;11.30;;
51286;SDS011;37364;46.974;18.916;2023-02-28T05:45:24;16.25;;;9.88;;
51286;SDS011;37364;46.974;18.916;2023-02-28T05:47:55;24.42;;;11.77;;
51286;SDS011;37364;46.974;18.916;2023-02-28T05:50:25;33.45;;;12.48;;
51286;SDS011;37364;46.974;18.916;2023-02-28T05:52:55;22.95;;;12.77;;
51286;SDS011;37364;46.974;18.916;2023-02-28T05:55:25;22.17;;;12.10;;
51286;SDS011;37364;46.974;18.916;2023-02-28T05:57:58;23.30;;;12.82;;
51286;SDS011;37364;46.974;18.916;2023-02-28T06:00:28;21.88;;;12.52;;
51286;SDS011;37364;46.974;18.916;2023-02-28T06:02:59;32.00;;;14.60;;
51286;SDS011;37364;46.974;18.916;2023-02-28T06:05:29;28.30;;;14.45;;
51286;SDS011;37364;46.974;18.916;2023-02-28T06:07:59;23.63;;;14.90;;
51286;SDS011;37364;46.974;18.916;2023-02-28T06:10:29;28.83;;;15.63;;
51286;SDS011;37364;46.974;18.916;2023-02-28T06:13:02;39.30;;;16.77;;
51286;SDS011;37364;46.974;18.916;2023-02-28T06:15:33;26.05;;;15.23;;
51286;SDS011;37364;46.974;18.916;2023-02-28T06:18:04;26.25;;;15.55;;
51286;SDS011;37364;46.974;18.916;2023-02-28T06:20:34;32.13;;;14.57;;
51286;SDS011;37364;46.974;18.916;2023-02-28T06:23:04;27.40;;;15.10;;
51286;SDS011;37364;46.974;18.916;2023-02-28T06:25:34;28.88;;;15.85;;
51286;SDS011;37364;46.974;18.916;2023-02-28T06:28:07;31.10;;;14.10;;
51286;SDS011;37364;46.974;18.916;2023-02-28T06:30:37;31.02;;;16.25;;
51286;SDS011;37364;46.974;18.916;2023-02-28T06:33:11;33.00;;;14.23;;
51286;SDS011;37364;46.974;18.916;2023-02-28T06:35:43;26.42;;;14.30;;
51286;SDS011;37364;46.974;18.916;2023-02-28T06:38:13;27.15;;;13.60;;
51286;SDS011;37364;46.974;18.916;2023-02-28T06:40:44;19.10;;;11.98;;
51286;SDS011;37364;46.974;18.916;2023-02-28T06:43:25;19.60;;;12.32;;
51286;SDS011;37364;46.974;18.916;2023-02-28T06:45:58;20.63;;;12.10;;
51286;SDS011;37364;46.974;18.916;2023-02-28T06:48:29;19.40;;;11.85;;
51286;SDS011;37364;46.974;18.916;2023-02-28T06:51:02;22.17;;;12.60;;
51286;SDS011;37364;46.974;18.916;2023-02-28T06:53:33;18.65;;;11.55;;
51286;SDS011;37364;46.974;18.916;2023-02-28T06:56:03;20.90;;;12.95;;
51286;SDS011;37364;46.974;18.916;2023-02-28T06:58:37;25.23;;;11.30;;
51286;SDS011;37364;46.974;18.916;2023-02-28T07:01:08;21.00;;;12.75;;
51286;SDS011;37364;46.974;18.916;2023-02-28T07:03:39;18.77;;;11.82;;
51286;SDS011;37364;46.974;18.916;2023-02-28T07:06:09;20.60;;;12.63;;
51286;SDS011;37364;46.974;18.916;2023-02-28T07:08:41;22.92;;;13.00;;
51286;SDS011;37364;46.974;18.916;2023-02-28T07:11:11;18.23;;;12.32;;
51286;SDS011;37364;46.974;18.916;2023-02-28T07:13:44;22.15;;;12.70;;
51286;SDS011;37364;46.974;18.916;2023-02-28T07:16:14;19.42;;;12.50;;
51286;SDS011;37364;46.974;18.916;2023-02-28T07:18:44;19.95;;;12.23;;
51286;SDS011;37364;46.974;18.916;2023-02-28T07:21:16;26.48;;;12.85;;
51286;SDS011;37364;46.974;18.916;2023-02-28T07:23:46;32.80;;;14.25;;
51286;SDS011;37364;46.974;18.916;2023-02-28T07:26:16;20.58;;;12.02;;
51286;SDS011;37364;46.974;18.916;2023-02-28T07:28:50;14.60;;;11.25;;
51286;SDS011;37364;46.974;18.916;2023-02-28T07:31:20;17.83;;;11.43;;
51286;SDS011;37364;46.974;18.916;2023-02-28T07:33:50;24.15;;;13.40;;
51286;SDS011;37364;46.974;18.916;2023-02-28T07:36:21;22.42;;;13.70;;
51286;SDS011;37364;46.974;18.916;2023-02-28T07:38:54;17.92;;;11.32;;
51286;SDS011;37364;46.974;18.916;2023-02-28T07:41:24;26.27;;;12.85;;
51286;SDS011;37364;46.974;18.916;2023-02-28T07:43:59;17.60;;;10.75;;
51286;SDS011;37364;46.974;18.916;2023-02-28T07:46:30;18.00;;;11.50;;
51286;SDS011;37364;46.974;18.916;2023-02-28T07:49:03;22.02;;;10.02;;
51286;SDS011;37364;46.974;18.916;2023-02-28T07:51:33;21.42;;;12.23;;
51286;SDS011;37364;46.974;18.916;2023-02-28T07:54:03;19.63;;;11.38;;
51286;SDS011;37364;46.974;18.916;2023-02-28T07:56:34;17.25;;;11.02;;
51286;SDS011;37364;46.974;18.916;2023-02-28T07:59:06;20.38;;;10.75;;
51286;SDS011;37364;46.974;18.916;2023-02-28T08:01:37;17.00;;;10.43;;
51286;SDS011;37364;46.974;18.916;2023-02-28T08:04:07;20.90;;;11.15;;
51286;SDS011;37364;46.974;18.916;2023-02-28T08:06:37;18.02;;;11.00;;
51286;SDS011;37364;46.974;18.916;2023-02-28T08:09:07;21.50;;;11.43;;
51286;SDS011;37364;46.974;18.916;2023-02-28T08:11:38;18.13;;;11.38;;
51286;SDS011;37364;46.974;18.916;2023-02-28T08:14:10;17.88;;;11.18;;
51286;SDS011;37364;46.974;18.916;2023-02-28T08:16:40;18.45;;;10.18;;
51286;SDS011;37364;46.974;18.916;2023-02-28T08:19:11;14.73;;;10.13;;
51286;SDS011;37364;46.974;18.916;2023-02-28T08:21:41;18.60;;;9.82;;
51286;SDS011;37364;46.974;18.916;2023-02-28T08:24:11;16.35;;;10.32;;
51286;SDS011;37364;46.974;18.916;2023-02-28T08:26:41;13.48;;;8.80;;
51286;SDS011;37364;46.974;18.916;2023-02-28T08:29:14;15.30;;;9.40;;
51286;SDS011;37364;46.974;18.916;2023-02-28T08:31:44;14.30;;;9.63;;
51286;SDS011;37364;46.974;18.916;2023-02-28T08:34:15;18.17;;;9.43;;
51286;SDS011;37364;46.974;18.916;2023-02-28T08:36:46;13.43;;;9.55;;
51286;SDS011;37364;46.974;18.916;2023-02-28T08:39:16;34.58;;;18.98;;
51286;SDS011;37364;46.974;18.916;2023-02-28T08:41:46;20.92;;;12.52;;
51286;SDS011;37364;46.974;18.916;2023-02-28T08:44:33;15.82;;;10.05;;
51286;SDS011;37364;46.974;18.916;2023-02-28T08:47:04;19.27;;;9.70;;
51286;SDS011;37364;46.974;18.916;2023-02-28T08:49:34;20.77;;;10.02;;
51286;SDS011;37364;46.974;18.916;2023-02-28T08:52:07;24.13;;;9.75;;
51286;SDS011;37364;46.974;18.916;2023-02-28T08:54:37;14.60;;;9.75;;
51286;SDS011;37364;46.974;18.916;2023-02-28T08:57:07;16.80;;;10.25;;
51286;SDS011;37364;46.974;18.916;2023-02-28T08:59:40;23.48;;;10.18;;
51286;SDS011;37364;46.974;18.916;2023-02-28T09:02:12;16.47;;;11.10;;
51286;SDS011;37364;46.974;18.916;2023-02-28T09:04:42;15.68;;;9.70;;
51286;SDS011;37364;46.974;18.916;2023-02-28T09:07:13;11.98;;;9.82;;
51286;SDS011;37364;46.974;18.916;2023-02-28T09:09:43;13.95;;;10.02;;
51286;SDS011;37364;46.974;18.916;2023-02-28T09:12:24;15.07;;;9.63;;
51286;SDS011;37364;46.974;18.916;2023-02-28T09:14:59;12.77;;;9.25;;
51286;SDS011;37364;46.974;18.916;2023-02-28T09:17:29;14.20;;;10.20;;
51286;SDS011;37364;46.974;18.916;2023-02-28T09:19:59;11.75;;;9.30;;
51286;SDS011;37364;46.974;18.916;2023-02-28T09:22:30;12.98;;;9.93;;
51286;SDS011;37364;46.974;18.916;2023-02-28T09:25:00;14.65;;;10.45;;
51286;SDS011;37364;46.974;18.916;2023-02-28T09:27:32;15.32;;;11.00;;
51286;SDS011;37364;46.974;18.916;2023-02-28T09:30:07;30.63;;;11.95;;
51286;SDS011;37364;46.974;18.916;2023-02-28T09:32:38;14.68;;;10.38;;
51286;SDS011;37364;46.974;18.916;2023-02-28T09:35:08;18.02;;;9.80;;
51286;SDS011;37364;46.974;18.916;2023-02-28T09:37:42;17.45;;;10.45;;
51286;SDS011;37364;46.974;18.916;2023-02-28T09:40:13;17.17;;;11.70;;
51286;SDS011;37364;46.974;18.916;2023-02-28T09:42:46;22.08;;;11.35;;
51286;SDS011;37364;46.974;18.916;2023-02-28T09:45:22;25.52;;;10.73;;
51286;SDS011;37364;46.974;18.916;2023-02-28T09:47:58;19.00;;;11.02;;
51286;SDS011;37364;46.974;18.916;2023-02-28T09:50:33;14.35;;;9.98;;
51286;SDS011;37364;46.974;18.916;2023-02-28T09:53:06;20.83;;;11.00;;
51286;SDS011;37364;46.974;18.916;2023-02-28T09:55:47;16.13;;;10.77;;
51286;SDS011;37364;46.974;18.916;2023-02-28T09:58:20;19.50;;;12.10;;
51286;SDS011;37364;46.974;18.916;2023-02-28T10:01:02;15.43;;;10.88;;
51286;SDS011;37364;46.974;18.916;2023-02-28T10:03:39;14.90;;;10.75;;
51286;SDS011;37364;46.974;18.916;2023-02-28T10:06:17;23.13;;;11.65;;
51286;SDS011;37364;46.974;18.916;2023-02-28T10:08:51;14.55;;;10.85;;
51286;SDS011;37364;46.974;18.916;2023-02-28T10:11:26;24.40;;;15.23;;
51286;SDS011;37364;46.974;18.916;2023-02-28T10:14:00;17.20;;;10.93;;
51286;SDS011;37364;46.974;18.916;2023-02-28T10:16:37;13.75;;;10.05;;
51286;SDS011;37364;46.974;18.916;2023-02-28T10:19:14;18.98;;;9.82;;
51286;SDS011;37364;46.974;18.916;2023-02-28T10:21:49;15.95;;;11.07;;
51286;SDS011;37364;46.974;18.916;2023-02-28T10:24:29;17.63;;;10.27;;
51286;SDS011;37364;46.974;18.916;2023-02-28T10:27:06;15.95;;;11.48;;
51286;SDS011;37364;46.974;18.916;2023-02-28T10:29:45;13.38;;;9.80;;
51286;SDS011;37364;46.974;18.916;2023-02-28T10:32:20;18.35;;;10.60;;
51286;SDS011;37364;46.974;18.916;2023-02-28T10:34:55;15.77;;;10.93;;
51286;SDS011;37364;46.974;18.916;2023-02-28T10:37:28;14.05;;;10.77;;
51286;SDS011;37364;46.974;18.916;2023-02-28T10:39:59;17.85;;;10.30;;
51286;SDS011;37364;46.974;18.916;2023-02-28T10:42:29;15.68;;;11.52;;
51286;SDS011;37364;46.974;18.916;2023-02-28T10:45:10;21.00;;;11.45;;
51286;SDS011;37364;46.974;18.916;2023-02-28T10:47:54;18.47;;;11.33;;
51286;SDS011;37364;46.974;18.916;2023-02-28T10:50:26;14.90;;;10.75;;
51286;SDS011;37364;46.974;18.916;2023-02-28T10:53:16;20.75;;;10.77;;
51286;SDS011;37364;46.974;18.916;2023-02-28T10:55:58;16.75;;;10.43;;
51286;SDS011;37364;46.974;18.916;2023-02-28T10:58:30;13.90;;;10.82;;
51286;SDS011;37364;46.974;18.916;2023-02-28T11:01:12;13.05;;;9.73;;
51286;SDS011;37364;46.974;18.916;2023-02-28T11:03:47;15.48;;;11.40;;
51286;SDS011;37364;46.974;18.916;2023-02-28T11:06:19;15.88;;;11.82;;
51286;SDS011;37364;46.974;18.916;2023-02-28T11:08:52;21.67;;;10.82;;
51286;SDS011;37364;46.974;18.916;2023-02-28T11:11:24;17.90;;;11.07;;
51286;SDS011;37364;46.974;18.916;2023-02-28T11:14:02;16.55;;;11.15;;
51286;SDS011;37364;46.974;18.916;2023-02-28T11:16:34;20.13;;;10.85;;
51286;SDS011;37364;46.974;18.916;2023-02-28T11:19:15;12.65;;;10.30;;
51286;SDS011;37364;46.974;18.916;2023-02-28T11:21:52;19.98;;;11.75;;
51286;SDS011;37364;46.974;18.916;2023-02-28T11:24:25;13.25;;;9.50;;
51286;SDS011;37364;46.974;18.916;2023-02-28T11:26:58;17.60;;;10.20;;
51286;SDS011;37364;46.974;18.916;2023-02-28T11:29:29;15.65;;;10.35;;
51286;SDS011;37364;46.974;18.916;2023-02-28T11:32:05;13.90;;;9.85;;
51286;SDS011;37364;46.974;18.916;2023-02-28T11:34:45;14.45;;;10.10;;
51286;SDS011;37364;46.974;18.916;2023-02-28T11:37:29;15.15;;;11.40;;
51286;SDS011;37364;46.974;18.916;2023-02-28T11:40:02;19.77;;;10.57;;
51286;SDS011;37364;46.974;18.916;2023-02-28T11:42:48;16.75;;;10.98;;
51286;SDS011;37364;46.974;18.916;2023-02-28T11:45:30;12.65;;;9.85;;
51286;SDS011;37364;46.974;18.916;2023-02-28T11:48:14;15.30;;;10.48;;
51286;SDS011;37364;46.974;18.916;2023-02-28T11:50:56;12.68;;;10.32;;
51286;SDS011;37364;46.974;18.916;2023-02-28T11:53:37;13.07;;;9.90;;
51286;SDS011;37364;46.974;18.916;2023-02-28T11:56:26;13.40;;;10.27;;
51286;SDS011;37364;46.974;18.916;2023-02-28T11:59:08;14.23;;;10.85;;
51286;SDS011;37364;46.974;18.916;2023-02-28T12:02:05;13.30;;;10.05;;
51286;SDS011;37364;46.974;18.916;2023-02-28T12:04:52;15.38;;;10.00;;
51286;SDS011;37364;46.974;18.916;2023-02-28T12:07:39;16.85;;;11.73;;
51286;SDS011;37364;46.974;18.916;2023-02-28T12:10:21;19.65;;;11.32;;
51286;SDS011;37364;46.974;18.916;2023-02-28T12:12:57;13.70;;;10.30;;
51286;SDS011;37364;46.974;18.916;2023-02-28T12:15:40;13.13;;;10.52;;
51286;SDS011;37364;46.974;18.916;2023-02-28T12:18:34;18.17;;;11.15;;
51286;SDS011;37364;46.974;18.916;2023-02-28T12:21:15;13.95;;;10.88;;
51286;SDS011;37364;46.974;18.916;2023-02-28T12:24:00;12.52;;;10.32;;
51286;SDS011;37364;46.974;18.916;2023-02-28T12:26:52;20.20;;;10.35;;
51286;SDS011;37364;46.974;18.916;2023-02-28T12:29:24;15.20;;;10.63;;
51286;SDS011;37364;46.974;18.916;2023-02-28T12:31:59;16.20;;;10.30;;
51286;SDS011;37364;46.974;18.916;2023-02-28T12:34:36;22.33;;;10.43;;
51286;SDS011;37364;46.974;18.916;2023-02-28T12:37:10;14.38;;;9.73;;
51286;SDS011;37364;46.974;18.916;2023-02-28T12:39:47;14.63;;;11.40;;
51286;SDS011;37364;46.974;18.916;2023-02-28T12:42:23;14.75;;;10.80;;
51286;SDS011;37364;46.974;18.916;2023-02-28T12:44:58;19.45;;;11.43;;
51286;SDS011;37364;46.974;18.916;2023-02-28T12:47:36;15.93;;;10.95;;
51286;SDS011;37364;46.974;18.916;2023-02-28T12:50:10;17.27;;;10.82;;
51286;SDS011;37364;46.974;18.916;2023-02-28T12:52:41;16.67;;;11.27;;
51286;SDS011;37364;46.974;18.916;2023-02-28T12:55:25;16.85;;;11.50;;
51286;SDS011;37364;46.974;18.916;2023-02-28T12:58:11;18.15;;;13.50;;
51286;SDS011;37364;46.974;18.916;2023-02-28T13:00:50;15.93;;;11.20;;
51286;SDS011;37364;46.974;18.916;2023-02-28T13:03:51;17.80;;;11.65;;
51286;SDS011;37364;46.974;18.916;2023-02-28T13:06:42;19.95;;;11.38;;
51286;SDS011;37364;46.974;18.916;2023-02-28T13:09:26;22.98;;;10.57;;
51286;SDS011;37364;46.974;18.916;2023-02-28T13:12:00;15.35;;;11.00;;
51286;SDS011;37364;46.974;18.916;2023-02-28T13:14:35;26.05;;;13.15;;
51286;SDS011;37364;46.974;18.916;2023-02-28T13:17:10;19.50;;;12.35;;
51286;SDS011;37364;46.974;18.916;2023-02-28T13:19:43;21.80;;;11.60;;
51286;SDS011;37364;46.974;18.916;2023-02-28T13:22:18;17.55;;;11.63;;
51286;SDS011;37364;46.974;18.916;2023-02-28T13:28:11;16.90;;;11.93;;
51286;SDS011;37364;46.974;18.916;2023-02-28T13:33:34;15.45;;;11.95;;
51286;SDS011;37364;46.974;18.916;2023-02-28T13:36:06;14.63;;;11.05;;
51286;SDS011;37364;46.974;18.916;2023-02-28T13:38:40;17.80;;;11.15;;
51286;SDS011;37364;46.974;18.916;2023-02-28T13:44:20;16.58;;;11.50;;
51286;SDS011;37364;46.974;18.916;2023-02-28T13:49:52;15.65;;;12.10;;
51286;SDS011;37364;46.974;18.916;2023-02-28T13:52:22;17.90;;;12.18;;
51286;SDS011;37364;46.974;18.916;2023-02-28T13:55:06;16.92;;;12.50;;
51286;SDS011;37364;46.974;18.916;2023-02-28T13:58:08;20.05;;;11.73;;
51286;SDS011;37364;46.974;18.916;2023-02-28T14:01:06;17.10;;;12.13;;
51286;SDS011;37364;46.974;18.916;2023-02-28T14:03:53;15.57;;;11.95;;
51286;SDS011;37364;46.974;18.916;2023-02-28T14:06:47;17.40;;;11.35;;
51286;SDS011;37364;46.974;18.916;2023-02-28T14:11:52;16.90;;;11.73;;
51286;SDS011;37364;46.974;18.916;2023-02-28T14:17:31;22.77;;;12.57;;
51286;SDS011;37364;46.974;18.916;2023-02-28T14:20:02;20.30;;;11.70;;
51286;SDS011;37364;46.974;18.916;2023-02-28T14:22:41;24.77;;;13.13;;
51286;SDS011;37364;46.974;18.916;2023-02-28T14:25:25;15.07;;;11.90;;
51286;SDS011;37364;46.974;18.916;2023-02-28T14:28:06;15.95;;;11.85;;
51286;SDS011;37364;46.974;18.916;2023-02-28T14:30:50;16.80;;;11.80;;
51286;SDS011;37364;46.974;18.916;2023-02-28T14:33:35;18.50;;;12.02;;
51286;SDS011;37364;46.974;18.916;2023-02-28T14:36:18;13.38;;;11.25;;
51286;SDS011;37364;46.974;18.916;2023-02-28T14:38:54;15.85;;;12.40;;
51286;SDS011;37364;46.974;18.916;2023-02-28T14:41:29;20.13;;;13.23;;
51286;SDS011;37364;46.974;18.916;2023-02-28T14:44:13;16.83;;;12.02;;
51286;SDS011;37364;46.974;18.916;2023-02-28T14:46:47;24.20;;;12.63;;
51286;SDS011;37364;46.974;18.916;2023-02-28T14:49:23;20.88;;;13.55;;
51286;SDS011;37364;46.974;18.916;2023-02-28T14:52:02;16.75;;;13.25;;
51286;SDS011;37364;46.974;18.916;2023-02-28T14:54:37;16.52;;;12.73;;
51286;SDS011;37364;46.974;18.916;2023-02-28T14:57:19;17.70;;;12.68;;
51286;SDS011;37364;46.974;18.916;2023-02-28T14:59:58;18.35;;;12.48;;
51286;SDS011;37364;46.974;18.916;2023-02-28T15:02:33;15.77;;;12.32;;
51286;SDS011;37364;46.974;18.916;2023-02-28T15:05:15;20.08;;;13.13;;
51286;SDS011;37364;46.974;18.916;2023-02-28T15:08:01;35.38;;;13.85;;
51286;SDS011;37364;46.974;18.916;2023-02-28T15:10:33;26.83;;;14.60;;
51286;SDS011;37364;46.974;18.916;2023-02-28T15:13:05;18.48;;;13.40;;
51286;SDS011;37364;46.974;18.916;2023-02-28T15:15:40;22.02;;;11.43;;
51286;SDS011;37364;46.974;18.916;2023-02-28T15:18:30;18.25;;;12.07;;
51286;SDS011;37364;46.974;18.916;2023-02-28T15:21:14;23.60;;;14.93;;
51286;SDS011;37364;46.974;18.916;2023-02-28T15:23:49;23.20;;;13.18;;
51286;SDS011;37364;46.974;18.916;2023-02-28T15:26:23;20.85;;;11.98;;
51286;SDS011;37364;46.974;18.916;2023-02-28T15:28:59;21.10;;;15.65;;
51286;SDS011;37364;46.974;18.916;2023-02-28T15:31:32;18.52;;;13.48;;